createdAt,value
2023-05-13T00:01:18.837Z,68.86948313341377
2023-05-13T00:04:17.251Z,68.9812438944865
2023-05-13T00:07:17.234Z,69.25479676236807
2023-05-13T00:11:16.950Z,69.18441192531692
2023-05-13T00:14:17.262Z,69.4745601504595
2023-05-13T00:17:17.585Z,69.47234955056254
2023-05-13T00:21:16.991Z,69.61582413466408
2023-05-13T00:24:17.072Z,69.7183425035794
2023-05-13T00:27:17.183Z,69.688949727096
2023-05-13T00:31:17.148Z,69.94911676925824
2023-05-13T00:34:18.996Z,70.21507933126578
2023-05-13T00:37:17.348Z,70.43841289764738
2023-05-13T00:41:17.729Z,70.66746843277069
2023-05-13T00:44:17.081Z,70.97169831618078
2023-05-13T00:47:17.124Z,71.21854790522391
2023-05-13T00:51:17.614Z,71.83636710652901
2023-05-13T00:54:17.023Z,72.15509525733572
2023-05-13T00:57:17.002Z,72.62886547096066
2023-05-13T01:01:24.220Z,72.58948556499138
2023-05-13T01:04:26.529Z,73.01975637319627
2023-05-13T01:07:26.623Z,72.93162132466315
2023-05-13T01:11:22.826Z,73.15103738221606
2023-05-13T01:14:24.576Z,73.15985124886807
2023-05-13T01:17:20.758Z,72.88595496981804
2023-05-13T01:21:20.155Z,72.9742288165194
2023-05-13T01:24:17.307Z,73.05199694336281
2023-05-13T01:27:17.217Z,73.63978840326683
2023-05-13T01:31:16.528Z,74.68180365742582
2023-05-13T01:34:18.415Z,74.78880061251942
2023-05-13T01:37:16.213Z,74.74961258746171
2023-05-13T01:41:16.196Z,74.71645791550232
2023-05-13T01:44:16.490Z,74.63822358754324
2023-05-13T01:47:16.878Z,74.67086468832949
2023-05-13T01:51:16.151Z,74.82222823714457
2023-05-13T01:54:16.635Z,74.81247090798881
2023-05-13T01:57:16.685Z,74.77739406976471
2023-05-13T02:01:16.179Z,75.16635764729291
2023-05-13T02:04:16.737Z,75.15467352553831
2023-05-13T02:07:16.268Z,75.24406210868565
2023-05-13T02:11:16.844Z,75.49222213377685
2023-05-13T02:14:16.926Z,75.26515585610917
2023-05-13T02:17:16.727Z,75.60399021623434
2023-05-13T02:21:15.970Z,75.73011788558222
2023-05-13T02:24:16.304Z,75.8883605617816
2023-05-13T02:27:16.763Z,76.34596369063361
2023-05-13T02:31:15.817Z,77.1417685365232
2023-05-13T02:34:15.994Z,77.59430816547399
2023-05-13T02:37:16.021Z,77.57514671152374
2023-05-13T02:41:16.141Z,77.94867648148198
2023-05-13T02:44:16.249Z,77.34831106211142
2023-05-13T02:47:16.353Z,76.93980002364216
2023-05-13T02:51:16.062Z,76.83737651956244
2023-05-13T02:54:16.322Z,76.7721161572232
2023-05-13T02:57:16.620Z,76.74481262676358
2023-05-13T03:01:15.884Z,76.95431787085026
2023-05-13T03:04:15.968Z,76.8036463560368
2023-05-13T03:07:16.131Z,76.7555569122901
2023-05-13T03:11:16.372Z,77.0051173043552
2023-05-13T03:14:16.527Z,76.89404391197601
2023-05-13T03:17:16.906Z,77.1279356599377
2023-05-13T03:21:16.287Z,77.48874724320035
2023-05-13T03:24:16.660Z,77.52908914526141
2023-05-13T03:27:16.621Z,77.61758042481247
2023-05-13T03:31:16.225Z,77.75131916078797
2023-05-13T03:34:16.439Z,77.72572296443632
2023-05-13T03:37:16.730Z,77.86493125618357
2023-05-13T03:41:17.557Z,77.65303130112974
2023-05-13T03:44:16.022Z,77.538977544382
2023-05-13T03:47:16.060Z,77.66512229216782
2023-05-13T03:51:16.468Z,77.9885180856966
2023-05-13T03:54:16.949Z,77.9708650262848
2023-05-13T03:57:17.355Z,78.02373801728415
2023-05-13T04:01:15.871Z,78.12235021800477
2023-05-13T04:04:16.181Z,78.35151561120571
2023-05-13T04:07:16.390Z,78.48286933698702
2023-05-13T04:11:15.991Z,78.5175142820184
2023-05-13T04:14:16.335Z,78.57171684183172
2023-05-13T04:17:16.390Z,78.55323160308329
2023-05-13T04:21:16.424Z,79.13224687554941
2023-05-13T04:24:16.924Z,78.95640675982717
2023-05-13T04:27:16.623Z,79.16376095357643
2023-05-13T04:31:16.267Z,79.30955436267281
2023-05-13T04:34:16.308Z,79.32038718816402
2023-05-13T04:37:16.671Z,79.53293203766772
2023-05-13T04:41:16.409Z,79.41159829379102
2023-05-13T04:44:16.725Z,79.3413389154394
2023-05-13T04:47:17.608Z,79.48449480251392
2023-05-13T04:51:16.352Z,79.40216891523518
2023-05-13T04:54:16.465Z,79.50391042787787
2023-05-13T04:57:16.543Z,79.61100581942846
2023-05-13T05:01:16.103Z,80.27780979769571
2023-05-13T05:04:16.304Z,80.5013434764995
2023-05-13T05:07:16.521Z,80.23791376422105
2023-05-13T05:11:16.000Z,80.41039234632815
2023-05-13T05:14:16.283Z,79.8045897674568
2023-05-13T05:17:16.387Z,80.01720059231783
2023-05-13T05:21:18.222Z,80.08824018308954
2023-05-13T05:24:16.933Z,80.75802714597938
2023-05-13T05:27:16.829Z,80.81813526783142
2023-05-13T05:31:27.269Z,80.7072043809631
2023-05-13T05:34:26.372Z,80.60744559711134
2023-05-13T05:37:26.265Z,80.3307321848175
2023-05-13T05:41:16.486Z,80.1859732314032
2023-05-13T05:44:16.808Z,80.13711298916857
2023-05-13T05:47:16.577Z,80.19965896603082
2023-05-13T05:51:16.327Z,79.9060099465394
2023-05-13T05:54:16.821Z,79.7721342911376
2023-05-13T05:57:17.009Z,79.41686511102768
2023-05-13T06:01:16.558Z,79.32011118507533
2023-05-13T06:04:17.574Z,79.47206973363927
2023-05-13T06:07:16.904Z,79.49123828243701
2023-05-13T06:11:16.692Z,79.951977210968
2023-05-13T06:14:17.318Z,80.48761419820958
2023-05-13T06:17:16.891Z,80.85440992847379
2023-05-13T06:21:16.327Z,80.89068108629385
2023-05-13T06:24:16.779Z,81.17671875744809
2023-05-13T06:27:17.225Z,80.8517544109565
2023-05-13T06:31:17.334Z,80.85740559110582
2023-05-13T06:34:17.082Z,81.1107691642173
2023-05-13T06:37:17.402Z,81.21924382338872
2023-05-13T06:42:22.996Z,80.89813838674465
2023-05-13T06:44:16.291Z,81.20309443969595
2023-05-13T06:47:16.508Z,81.07115733545996
2023-05-13T06:51:16.151Z,81.29774396219406
2023-05-13T06:54:16.768Z,81.768970029482
2023-05-13T06:57:16.686Z,82.0643017555482
2023-05-13T07:01:16.796Z,82.58465320374964
2023-05-13T07:04:16.877Z,82.37971702590106
2023-05-13T07:07:16.829Z,82.29794828687963
2023-05-13T07:11:16.418Z,82.79361030894668
2023-05-13T07:14:16.903Z,83.65212222298467
2023-05-13T07:17:16.903Z,83.6606539948755
2023-05-13T07:21:16.668Z,83.62003740317353
2023-05-13T07:24:17.261Z,83.98893794614189
2023-05-13T07:27:17.213Z,83.96638146969907
2023-05-13T07:31:16.513Z,83.91891711925626
2023-05-13T07:34:16.843Z,83.82551097559416
2023-05-13T07:37:17.274Z,83.0698606426081
2023-05-13T07:41:16.018Z,81.93566329244514
2023-05-13T07:44:16.412Z,81.06111700847998
2023-05-13T07:47:16.483Z,80.63913930215962
2023-05-13T07:51:16.482Z,80.25996610055432
2023-05-13T07:54:16.415Z,79.95373003554485
2023-05-13T07:57:16.477Z,79.67632464909458
2023-05-13T08:01:15.828Z,79.48349837166225
2023-05-13T08:04:16.186Z,79.71964530898491
2023-05-13T08:07:16.271Z,79.20073675393404
2023-05-13T08:11:16.032Z,78.14510365572882
2023-05-13T08:14:16.517Z,78.03549840146026
2023-05-13T08:17:18.389Z,78.35504521629717
2023-05-13T08:21:15.707Z,79.48718241032358
2023-05-13T08:24:16.216Z,80.32317819565503
2023-05-13T08:27:16.261Z,81.08912069513906
2023-05-13T08:31:16.062Z,83.03060333599659
2023-05-13T08:34:16.951Z,85.25043435206742
2023-05-13T08:37:16.495Z,87.31838419764264
2023-05-13T08:41:16.848Z,89.6538011618018
2023-05-13T08:44:23.737Z,90.1893408434426
2023-05-13T08:47:25.862Z,89.04847254858336
2023-05-13T08:51:16.717Z,90.43881464358412
2023-05-13T08:54:20.387Z,91.86917018136769
2023-05-13T08:57:17.020Z,92.41867843531719
2023-05-13T09:01:17.061Z,94.41065064592416
2023-05-13T09:04:18.165Z,94.57784672682317
2023-05-13T09:07:16.633Z,94.99899250819905
2023-05-13T09:11:16.921Z,95.50716581913936
2023-05-13T09:14:18.892Z,94.7893240253971
2023-05-13T09:17:17.880Z,94.34704253293157
2023-05-13T09:21:24.587Z,94.60863994482874
2023-05-13T09:24:19.082Z,95.40336287990486
2023-05-13T09:27:22.505Z,95.59507039609765
2023-05-13T09:31:32.207Z,96.06056971330642
2023-05-13T09:34:25.652Z,96.44986230104867
2023-05-13T09:37:23.293Z,96.26949600507358
2023-05-13T09:41:19.124Z,96.94217172914928
2023-05-13T09:44:16.725Z,96.10359351107645
2023-05-13T09:47:17.137Z,94.95491679836395
2023-05-13T09:51:16.382Z,92.46061008630504
2023-05-13T09:54:16.959Z,91.05507346922488
2023-05-13T09:57:16.758Z,90.5889078916902
2023-05-13T10:01:16.577Z,90.99748385039248
2023-05-13T10:04:16.524Z,90.96387410866117
2023-05-13T10:07:18.062Z,89.67048503876082
2023-05-13T10:11:17.690Z,90.18207077297009
2023-05-13T10:14:17.454Z,90.35796483639663
2023-05-13T10:17:17.826Z,90.07888750385428
2023-05-13T10:21:16.167Z,90.81389233123508
2023-05-13T10:24:16.392Z,92.31568042647508
2023-05-13T10:27:18.339Z,93.75845798343884
2023-05-13T10:31:16.992Z,96.7025179676186
2023-05-13T10:34:16.937Z,97.52991580377225
2023-05-13T10:37:40.852Z,98.59419642490315
2023-05-13T10:41:38.073Z,100
2023-05-13T10:44:18.046Z,100
2023-05-13T10:47:16.607Z,100
2023-05-13T10:51:21.636Z,99.48203909423452
2023-05-13T10:54:19.454Z,96.76729149082377
2023-05-13T10:57:27.098Z,94.7306476008236
2023-05-13T11:01:18.317Z,94.94758924046374
2023-05-13T11:04:18.867Z,93.53742061835959
2023-05-13T11:07:17.194Z,92.13519090605845
2023-05-13T11:11:26.696Z,91.65655066533715
2023-05-13T11:14:18.601Z,90.25245753923168
2023-05-13T11:17:18.934Z,89.26455983109662
2023-05-13T11:21:16.688Z,88.12047959255489
2023-05-13T11:24:18.908Z,86.18254132204234
2023-05-13T11:27:21.600Z,85.32545461671134
2023-05-13T11:31:17.216Z,86.78503098424855
2023-05-13T11:34:18.531Z,87.88637863994992
2023-05-13T11:37:17.807Z,89.33676013337247
2023-05-13T11:41:18.035Z,91.86581310954827
2023-05-13T11:44:22.951Z,92.96906955513788
2023-05-13T11:47:25.210Z,95.29500789005114
2023-05-13T11:51:17.548Z,94.06518013150598
2023-05-13T11:54:17.154Z,93.45359338699355
2023-05-13T11:57:21.879Z,93.16478351059529
2023-05-13T12:01:16.496Z,91.50149378103286
2023-05-13T12:04:17.241Z,91.14788696184345
2023-05-13T12:07:20.020Z,90.98920055391815
2023-05-13T12:11:16.611Z,90.26654947463736
2023-05-13T12:14:17.007Z,88.79652126174312
2023-05-13T12:17:17.454Z,86.96694350633051
2023-05-13T12:21:20.690Z,87.08793373490435
2023-05-13T12:24:18.413Z,88.5396560557678
2023-05-13T12:27:17.115Z,88.44739496296688
2023-05-13T12:31:17.141Z,88.03347092130105
2023-05-13T12:34:29.998Z,87.43413683774997
2023-05-13T12:37:17.584Z,89.10609067070789
2023-05-13T12:41:17.347Z,89.9478223308
2023-05-13T12:44:16.299Z,91.23495997544211
2023-05-13T12:47:20.016Z,92.37851921826696
2023-05-13T12:51:16.269Z,93.46706813242622
2023-05-13T12:54:17.003Z,93.87899564076092
2023-05-13T12:57:17.793Z,94.17107992364838
2023-05-13T13:01:16.948Z,95.89704129196959
2023-05-13T13:04:17.173Z,96.98944311940535
2023-05-13T13:07:16.868Z,97.62832878083591
2023-05-13T13:11:19.073Z,99.50436121427084
2023-05-13T13:14:16.313Z,100
2023-05-13T13:17:16.395Z,100
2023-05-13T13:21:16.139Z,100
2023-05-13T13:24:16.537Z,100
2023-05-13T13:27:18.071Z,99.34425717500058
2023-05-13T13:31:22.104Z,99.22474343774805
2023-05-13T13:34:21.895Z,98.87819483624716
2023-05-13T13:37:22.794Z,98.47429803194481
2023-05-13T13:41:17.963Z,97.56196705882662
2023-05-13T13:44:18.468Z,96.49788661496343
2023-05-13T13:47:18.817Z,96.30736923817626
2023-05-13T13:51:15.961Z,96.82268129681495
2023-05-13T13:54:17.440Z,97.18969059477114
2023-05-13T13:57:16.734Z,97.11422555337546
2023-05-13T14:01:16.426Z,96.78185231069149
2023-05-13T14:04:18.276Z,96.39581651864772
2023-05-13T14:07:17.008Z,96.35772710117656
2023-05-13T14:11:16.862Z,95.99265864350325
2023-05-13T14:14:16.224Z,95.79543433432015
2023-05-13T14:17:16.321Z,95.77628557156366
2023-05-13T14:21:16.702Z,96.12417545727935
2023-05-13T14:24:16.567Z,96.7324999011989
2023-05-13T14:27:16.731Z,96.66514507727067
2023-05-13T14:31:16.350Z,95.88959394576713
2023-05-13T14:34:18.341Z,95.96720926099793
2023-05-13T14:37:16.914Z,95.92736822434311
2023-05-13T14:41:20.049Z,96.86958538139339
2023-05-13T14:44:17.092Z,97.69103911490092
2023-05-13T14:47:17.108Z,97.42300603526168
2023-05-13T14:51:16.600Z,96.4443223633103
2023-05-13T14:54:17.949Z,96.28437787075362
2023-05-13T14:57:16.992Z,96.33208393468941
2023-05-13T15:01:17.526Z,95.4274040868656
2023-05-13T15:04:17.434Z,94.9709305373239
2023-05-13T15:07:17.420Z,94.46488885938466
2023-05-13T15:11:17.010Z,94.23849807865837
2023-05-13T15:14:18.236Z,94.0398883145474
2023-05-13T15:17:17.609Z,94.06873265208364
2023-05-13T15:21:16.545Z,94.61868063511324
2023-05-13T15:24:16.652Z,95.27017959412284
2023-05-13T15:27:17.343Z,95.65288233435689
2023-05-13T15:31:16.339Z,95.24712500070437
2023-05-13T15:34:16.499Z,95.1835112400993
2023-05-13T15:37:16.877Z,94.77684590455912
2023-05-13T15:41:16.388Z,94.33634685278706
2023-05-13T15:44:16.766Z,94.02912194408643
2023-05-13T15:47:16.951Z,93.85979648937966
2023-05-13T15:51:16.144Z,93.95120744376088
2023-05-13T15:54:16.433Z,93.4671294131836
2023-05-13T15:57:18.340Z,93.7075951626553
2023-05-13T16:01:16.442Z,93.75020586069175
2023-05-13T16:04:16.733Z,93.73936784230669
2023-05-13T16:07:16.611Z,93.466074007647
2023-05-13T16:11:16.604Z,93.23139220797384
2023-05-13T16:14:18.846Z,93.02780201006192
2023-05-13T16:17:16.916Z,93.27731295996162
2023-05-13T16:21:16.265Z,92.91779461310456
2023-05-13T16:24:16.588Z,91.48887434290137
2023-05-13T16:27:16.488Z,91.06825760058511
2023-05-13T16:31:16.608Z,90.65877217814659
2023-05-13T16:34:16.867Z,90.54418712923133
2023-05-13T16:37:17.094Z,90.28526289548559
2023-05-13T16:41:15.766Z,90.12910822253
2023-05-13T16:44:16.130Z,89.37793415041469
2023-05-13T16:47:16.240Z,89.20537399349787
2023-05-13T16:51:16.333Z,89.01314214986327
2023-05-13T16:54:16.619Z,88.9174155144489
2023-05-13T16:57:18.400Z,88.56255188594278
2023-05-13T17:01:16.634Z,88.30030551340452
2023-05-13T17:04:17.191Z,88.56158489360219
2023-05-13T17:07:16.814Z,88.70106746121708
2023-05-13T17:11:16.965Z,88.84510933136117
2023-05-13T17:14:16.416Z,88.75908410682663
2023-05-13T17:17:16.537Z,88.7879499034265
2023-05-13T17:21:16.901Z,89.03825002395143
2023-05-13T17:24:17.786Z,88.7285449673376
2023-05-13T17:27:16.950Z,88.44487025086029
2023-05-13T17:31:16.254Z,88.33444393751259
2023-05-13T17:34:17.334Z,88.1392076639834
2023-05-13T17:37:17.434Z,87.75048396059164
2023-05-13T17:41:18.708Z,87.54550606996233
2023-05-13T17:44:19.592Z,87.45335120801583
2023-05-13T17:47:18.837Z,87.42663783169795
2023-05-13T17:51:16.793Z,87.34589139957265
2023-05-13T17:54:18.714Z,87.48203705111115
2023-05-13T17:57:17.894Z,87.44099189730451
2023-05-13T18:01:18.407Z,86.85353118343214
2023-05-13T18:04:18.262Z,87.04138437444317
2023-05-13T18:07:19.395Z,87.26399459072873
2023-05-13T18:11:18.992Z,88.00532615111193
2023-05-13T18:14:18.524Z,87.99244499379688
2023-05-13T18:17:17.577Z,88.04076304083728
2023-05-13T18:21:16.391Z,88.60102167377278
2023-05-13T18:24:16.444Z,89.09503074219282
2023-05-13T18:27:16.743Z,89.18866132099609
2023-05-13T18:31:16.471Z,88.61875550902514
2023-05-13T18:34:16.646Z,88.41902881618093
2023-05-13T18:37:16.486Z,88.82648157914545
2023-05-13T18:41:16.323Z,89.21130662960823
2023-05-13T18:44:16.684Z,89.59684638178855
2023-05-13T18:47:16.662Z,90.13841862101071
2023-05-13T18:51:17.097Z,90.85452612576712
2023-05-13T18:54:16.924Z,91.2471825880229
2023-05-13T18:57:19.172Z,91.47027961676949
2023-05-13T19:01:18.230Z,91.88170200570632
2023-05-13T19:04:17.457Z,92.16874824623659
2023-05-13T19:07:17.235Z,92.73426638581103
2023-05-13T19:11:16.702Z,92.9554934776294
2023-05-13T19:14:18.859Z,93.0502171358968
2023-05-13T19:17:17.674Z,93.52869528143383
2023-05-13T19:21:17.382Z,93.69617973047428
2023-05-13T19:24:17.016Z,93.91765557645272
2023-05-13T19:27:19.174Z,94.05588563885664
2023-05-13T19:31:16.284Z,94.35871033453776
2023-05-13T19:34:16.740Z,94.47297737204303
2023-05-13T19:37:16.813Z,94.94730854951904
2023-05-13T19:41:18.056Z,95.22234051406208
2023-05-13T19:44:17.709Z,95.37896045521885
2023-05-13T19:47:16.512Z,95.49767844120078
2023-05-13T19:51:16.571Z,96.16011187028694
2023-05-13T19:54:19.145Z,96.47968382027459
2023-05-13T19:57:17.536Z,96.16891658012283
2023-05-13T20:01:19.807Z,96.34604976177859
2023-05-13T20:04:17.172Z,96.7149353582452
2023-05-13T20:07:17.779Z,96.40823088581519
2023-05-13T20:11:17.180Z,96.70182693912331
2023-05-13T20:14:21.691Z,96.56327038862989
2023-05-13T20:17:19.196Z,96.58666669665273
2023-05-13T20:21:17.071Z,96.9358512474273
2023-05-13T20:24:19.805Z,96.8965628030673
2023-05-13T20:27:18.202Z,97.30816706143861
2023-05-13T20:31:19.475Z,97.52306178185609
2023-05-13T20:34:16.888Z,97.73478482244278
2023-05-13T20:37:17.156Z,98.36610852309778
2023-05-13T20:41:16.668Z,98.26946023987051
2023-05-13T20:44:18.300Z,98.41422061218893
2023-05-13T20:47:17.526Z,98.5011301489592
2023-05-13T20:51:17.229Z,98.88241986065022
2023-05-13T20:54:17.055Z,98.82516798840864
2023-05-13T20:57:17.131Z,98.76591465394075
2023-05-13T21:01:16.191Z,99.39298950792325
2023-05-13T21:04:16.539Z,99.50996048427095
2023-05-13T21:07:16.486Z,100
2023-05-13T21:11:16.832Z,100
2023-05-13T21:14:16.798Z,100
2023-05-13T21:17:21.566Z,100
2023-05-13T21:21:16.364Z,100
2023-05-13T21:24:17.833Z,100
2023-05-13T21:27:16.550Z,100
2023-05-13T21:31:16.864Z,99.8013863137339
2023-05-13T21:34:17.224Z,99.90732682661428
2023-05-13T21:37:17.078Z,99.70840262520461
2023-05-13T21:41:20.039Z,99.6386162823548
2023-05-13T21:44:17.173Z,99.47188124262568
2023-05-13T21:47:17.271Z,100
2023-05-13T21:51:16.838Z,99.92260492756688
2023-05-13T21:54:17.735Z,99.79370186631259
2023-05-13T21:57:16.984Z,99.65700703459605
2023-05-13T22:01:16.319Z,99.65277030265763
2023-05-13T22:04:16.531Z,99.68665279438304
2023-05-13T22:07:16.489Z,99.98356187620405
2023-05-13T22:11:16.660Z,100
2023-05-13T22:14:17.124Z,100
2023-05-13T22:17:16.968Z,99.86478537610228
2023-05-13T22:21:16.106Z,100
2023-05-13T22:24:16.427Z,100
2023-05-13T22:27:16.372Z,100
2023-05-13T22:31:16.744Z,100
2023-05-13T22:34:16.746Z,100
2023-05-13T22:37:17.061Z,100
2023-05-13T22:41:15.962Z,100
2023-05-13T22:44:16.326Z,100
2023-05-13T22:47:16.325Z,100
2023-05-13T22:51:16.845Z,100
2023-05-13T22:54:17.194Z,100
2023-05-13T22:57:17.296Z,100
2023-05-13T23:01:16.557Z,100
2023-05-13T23:04:16.580Z,100
2023-05-13T23:07:16.647Z,100
2023-05-13T23:11:16.333Z,100
2023-05-13T23:14:16.672Z,100
2023-05-13T23:17:16.687Z,100
2023-05-13T23:21:16.062Z,100
2023-05-13T23:24:16.569Z,100
2023-05-13T23:27:16.244Z,100
2023-05-13T23:31:16.947Z,100
2023-05-13T23:34:16.887Z,100
2023-05-13T23:37:18.734Z,100
2023-05-13T23:41:16.255Z,100
2023-05-13T23:44:16.515Z,100
2023-05-13T23:47:16.842Z,100
2023-05-13T23:51:15.948Z,100
2023-05-13T23:54:16.863Z,100
2023-05-13T23:57:16.434Z,100
